Time;durP1;ratioP1;P1;durP2;ratioP2;P2;SDS_P1;SDS_P2;PMS_P1;PMS_P2;Temp;Humidity;BMP_temperature;BMP_pressure;BME280_temperature;BME280_humidity;BME280_pressure;Samples;Min_cycle;Max_cycle;Signal;HPM_P1;HPM_P2
2022/12/12 00:01:33;;;;;;;27.73;19.37;;;;;;;-0.83;100.00;97426.03;5096473;28;20729;-71
2022/12/12 00:04:00;;;;;;;27.23;18.37;;;;;;;-0.84;100.00;97434.84;5096754;28;20192;-71
2022/12/12 00:06:27;;;;;;;25.93;18.13;;;;;;;-0.89;100.00;97430.09;5097596;28;20210;-71
2022/12/12 00:08:53;;;;;;;24.30;17.47;;;;;;;-0.91;100.00;97431.25;5096415;28;20200;-72
2022/12/12 00:11:21;;;;;;;26.70;18.47;;;;;;;-0.99;100.00;97426.84;5096331;28;20228;-71
2022/12/12 00:13:48;;;;;;;24.23;16.87;;;;;;;-0.91;100.00;97433.84;5096320;28;20208;-71
2022/12/12 00:16:14;;;;;;;23.90;17.80;;;;;;;-1.06;100.00;97436.31;5096535;28;20210;-71
2022/12/12 00:18:42;;;;;;;23.23;16.70;;;;;;;-1.11;100.00;97437.78;5096569;28;20298;-71
2022/12/12 00:21:15;;;;;;;23.13;17.00;;;;;;;-1.07;100.00;97439.09;5096287;28;20364;-71
2022/12/12 00:23:41;;;;;;;22.07;15.87;;;;;;;-0.99;100.00;97437.28;5078485;28;20665;-71
2022/12/12 00:26:15;;;;;;;20.90;14.80;;;;;;;-1.02;100.00;97432.41;5096000;28;20713;-71
2022/12/12 00:28:41;;;;;;;21.13;15.70;;;;;;;-1.01;100.00;97439.25;5096895;28;20421;-71
2022/12/12 00:31:08;;;;;;;24.30;15.53;;;;;;;-1.04;100.00;97436.97;5096217;28;20479;-71
2022/12/12 00:33:34;;;;;;;20.57;15.93;;;;;;;-1.02;100.00;97439.41;5096250;28;20210;-71
2022/12/12 00:36:00;;;;;;;25.40;17.53;;;;;;;-1.05;100.00;97437.94;5095882;28;20196;-71
2022/12/12 00:38:27;;;;;;;23.60;17.27;;;;;;;-1.12;100.00;97439.53;5095829;28;20687;-72
2022/12/12 00:40:58;;;;;;;22.23;15.70;;;;;;;-1.17;100.00;97441.03;5095681;28;20463;-71
2022/12/12 00:43:26;;;;;;;20.97;15.97;;;;;;;-1.20;100.00;97438.72;5096008;28;20210;-71
2022/12/12 00:45:53;;;;;;;23.77;15.77;;;;;;;-1.21;100.00;97440.50;5095606;28;20471;-71
2022/12/12 00:48:20;;;;;;;24.13;15.67;;;;;;;-1.17;100.00;97443.63;5095852;28;20481;-71
2022/12/12 00:50:47;;;;;;;22.73;16.37;;;;;;;-1.18;100.00;97440.19;5095930;28;20228;-71
2022/12/12 00:53:13;;;;;;;22.00;15.70;;;;;;;-1.09;100.00;97441.84;5095854;28;20202;-71
2022/12/12 00:55:40;;;;;;;22.13;15.83;;;;;;;-1.11;100.00;97446.41;5095357;28;20663;-71
2022/12/12 00:58:06;;;;;;;25.77;16.43;;;;;;;-1.14;100.00;97446.72;5096389;28;20440;-71
2022/12/12 01:00:34;;;;;;;20.13;14.50;;;;;;;-1.09;100.00;97447.06;5095251;28;20440;-71
2022/12/12 01:03:00;;;;;;;19.90;14.07;;;;;;;-1.07;100.00;97449.50;5095599;28;20529;-71
2022/12/12 01:05:27;;;;;;;20.10;13.87;;;;;;;-1.12;100.00;97442.16;5095466;28;20223;-72
2022/12/12 01:07:56;;;;;;;18.03;13.83;;;;;;;-1.14;100.00;97445.91;5095125;28;20204;-71
2022/12/12 01:10:22;;;;;;;20.90;13.13;;;;;;;-1.12;100.00;97447.38;5095134;28;20291;-71
2022/12/12 01:12:49;;;;;;;19.83;13.67;;;;;;;-1.10;100.00;97448.03;5095430;28;20206;-71
2022/12/12 01:15:16;;;;;;;19.67;13.07;;;;;;;-1.20;100.00;97439.56;5095115;28;20204;-71
2022/12/12 01:17:43;;;;;;;16.43;12.27;;;;;;;-1.16;100.00;97442.66;5095359;28;20204;-71
2022/12/12 01:20:29;;;;;;;20.70;13.27;;;;;;;-1.20;100.00;97438.72;5095323;28;20204;-71
2022/12/12 01:22:56;;;;;;;18.93;13.97;;;;;;;-1.24;100.00;97443.47;5095167;28;20424;-71
2022/12/12 01:25:23;;;;;;;20.00;13.17;;;;;;;-1.19;100.00;97440.34;5094572;28;20227;-71
2022/12/12 01:27:49;;;;;;;16.63;11.70;;;;;;;-1.30;100.00;97443.28;5095952;28;20203;-71
2022/12/12 01:30:18;;;;;;;14.83;11.17;;;;;;;-1.28;99.69;97447.38;5095096;28;20298;-71
2022/12/12 01:32:45;;;;;;;18.27;12.53;;;;;;;-1.43;100.00;97446.38;5094419;28;20505;-71
2022/12/12 01:35:12;;;;;;;18.03;12.60;;;;;;;-1.40;100.00;97453.84;5095049;28;20204;-71
2022/12/12 01:37:40;;;;;;;17.27;11.23;;;;;;;-1.35;100.00;97443.75;5094741;28;20552;-71
2022/12/12 01:40:12;;;;;;;14.97;11.03;;;;;;;-1.29;99.46;97448.34;5094643;28;20602;-71
2022/12/12 01:42:39;;;;;;;14.87;10.67;;;;;;;-1.31;100.00;97447.69;5094851;28;20461;-71
2022/12/12 01:45:06;;;;;;;14.37;11.17;;;;;;;-1.40;100.00;97447.84;5094792;28;20472;-71
2022/12/12 01:47:32;;;;;;;13.93;10.43;;;;;;;-1.40;100.00;97443.41;5094774;28;20436;-71
2022/12/12 01:50:06;;;;;;;14.03;10.47;;;;;;;-1.39;100.00;97452.88;5094600;28;20443;-71
2022/12/12 01:52:39;;;;;;;14.10;10.53;;;;;;;-1.36;100.00;97457.78;5094346;28;20479;-71
2022/12/12 01:55:10;;;;;;;17.63;10.63;;;;;;;-1.46;100.00;97457.09;5094372;28;20423;-71
2022/12/12 01:57:43;;;;;;;16.30;10.87;;;;;;;-1.49;100.00;97460.00;5077211;28;20502;-71
2022/12/12 02:00:10;;;;;;;15.13;9.97;;;;;;;-1.45;100.00;97456.13;5095137;28;20428;-71
2022/12/12 02:02:40;;;;;;;13.93;9.53;;;;;;;-1.54;100.00;97456.28;5094037;28;21028;-71
2022/12/12 02:05:23;;;;;;;14.37;10.10;;;;;;;-1.62;100.00;97464.06;5076779;28;20480;-71
2022/12/12 02:07:50;;;;;;;15.17;10.50;;;;;;;-1.60;100.00;97459.50;5094499;28;20430;-71
2022/12/12 02:10:17;;;;;;;15.23;11.20;;;;;;;-1.61;100.00;97452.66;5094370;28;20440;-71
2022/12/12 02:12:43;;;;;;;16.17;10.70;;;;;;;-1.62;100.00;97461.44;5094281;28;20468;-71
2022/12/12 02:15:10;;;;;;;15.83;11.87;;;;;;;-1.67;100.00;97456.69;5094317;28;20438;-71
2022/12/12 02:18:03;;;;;;;15.37;10.93;;;;;;;-1.84;100.00;97451.59;5094221;28;20437;-71
2022/12/12 02:20:44;;;;;;;15.53;10.87;;;;;;;-1.88;100.00;97458.09;5076627;28;20420;-71
2022/12/12 02:23:45;;;;;;;16.30;10.77;;;;;;;-1.98;100.00;97452.97;5076172;28;20424;-71
2022/12/12 02:26:26;;;;;;;16.70;10.97;;;;;;;-2.15;100.00;97456.50;5088928;28;20471;-71
2022/12/12 02:28:58;;;;;;;16.97;10.53;;;;;;;-2.22;100.00;97459.88;5076224;28;20424;-71
2022/12/12 02:31:33;;;;;;;15.03;10.97;;;;;;;-2.27;100.00;97467.31;5093992;28;20456;-71
2022/12/12 02:34:24;;;;;;;17.10;11.13;;;;;;;-2.18;100.00;97462.00;5093724;28;20925;-71
2022/12/12 02:37:04;;;;;;;16.60;11.33;;;;;;;-2.29;100.00;97457.06;5093971;28;20413;-71
2022/12/12 02:39:44;;;;;;;16.60;11.60;;;;;;;-2.19;100.00;97467.38;5093931;28;20772;-71
2022/12/12 02:42:42;;;;;;;14.67;10.83;;;;;;;-2.21;100.00;97462.31;5077077;28;20513;-71
2022/12/12 02:45:49;;;;;;;14.47;10.77;;;;;;;-2.22;100.00;97463.28;5093580;28;20461;-71
2022/12/12 02:48:30;;;;;;;16.57;11.63;;;;;;;-2.25;100.00;97470.59;5068849;28;20448;-71
2022/12/12 02:51:00;;;;;;;18.50;12.07;;;;;;;-2.27;100.00;97465.53;5093974;28;20474;-71
2022/12/12 02:53:27;;;;;;;16.47;12.03;;;;;;;-2.39;100.00;97469.34;5093740;28;20447;-71
2022/12/12 02:56:26;;;;;;;16.30;11.07;;;;;;;-2.41;100.00;97467.88;5093404;28;20439;-71
2022/12/12 02:58:53;;;;;;;17.90;12.00;;;;;;;-2.47;100.00;97471.09;5092832;28;20448;-71
2022/12/12 03:01:34;;;;;;;18.13;12.10;;;;;;;-2.55;100.00;97474.47;5093291;28;20452;-71
2022/12/12 03:10:04;;;;;;;19.07;12.70;;;;;;;-2.37;100.00;97475.25;5093681;28;20388;-71
2022/12/12 03:12:44;;;;;;;17.60;12.07;;;;;;;-2.51;100.00;97473.19;5093209;28;20458;-71
2022/12/12 03:15:23;;;;;;;18.53;12.07;;;;;;;-2.52;100.00;97468.94;5093501;28;20432;-71
2022/12/12 03:18:29;;;;;;;16.70;11.20;;;;;;;-2.48;100.00;97470.28;5094064;28;20416;-71
2022/12/12 03:21:11;;;;;;;16.53;10.87;;;;;;;-2.50;100.00;97471.38;5052029;28;20449;-71
2022/12/12 03:23:41;;;;;;;17.57;11.30;;;;;;;-2.59;100.00;97470.53;5093491;28;20442;-71
2022/12/12 03:26:21;;;;;;;14.87;11.37;;;;;;;-2.58;100.00;97469.56;5075499;28;20464;-71
2022/12/12 03:29:09;;;;;;;18.17;11.57;;;;;;;-2.68;100.00;97474.03;5093180;28;20417;-71
2022/12/12 03:31:40;;;;;;;16.57;11.57;;;;;;;-2.77;100.00;97480.13;5093365;28;20460;-71
2022/12/12 03:34:14;;;;;;;17.67;12.40;;;;;;;-2.83;100.00;97478.16;5093394;28;20421;-71
2022/12/12 03:36:48;;;;;;;17.37;12.27;;;;;;;-2.78;100.00;97478.50;5093069;28;20416;-71
2022/12/12 03:39:27;;;;;;;18.23;12.33;;;;;;;-2.82;100.00;97477.19;5093071;28;20891;-71
2022/12/12 03:42:21;;;;;;;19.13;12.07;;;;;;;-2.81;100.00;97472.78;5093104;28;20456;-71
2022/12/12 03:44:58;;;;;;;17.97;12.73;;;;;;;-3.15;100.00;97480.47;5093140;28;20421;-71
2022/12/12 03:47:43;;;;;;;18.00;12.27;;;;;;;-3.28;100.00;97481.78;5076590;28;20420;-71
2022/12/12 03:50:36;;;;;;;19.67;12.47;;;;;;;-3.14;100.00;97478.66;5075626;28;20417;-71
2022/12/12 03:53:18;;;;;;;18.03;11.87;;;;;;;-3.14;100.00;97483.88;5092866;28;20907;-71
2022/12/12 03:55:52;;;;;;;18.47;11.77;;;;;;;-3.14;100.00;97484.69;5096091;28;20423;-71
2022/12/12 03:58:26;;;;;;;17.17;12.27;;;;;;;-3.12;100.00;97480.16;5096961;28;20424;-71
2022/12/12 04:00:57;;;;;;;19.33;12.63;;;;;;;-3.21;100.00;97477.63;5096307;28;20989;-71
2022/12/12 04:03:29;;;;;;;17.27;12.27;;;;;;;-3.27;100.00;97486.84;5079457;28;20436;-71
2022/12/12 04:06:28;;;;;;;18.67;13.03;;;;;;;-3.27;100.00;97489.44;5097141;28;20467;-71
2022/12/12 04:15:11;;;;;;;23.63;14.77;;;;;;;-2.85;100.00;97497.47;5065335;28;20888;-71
2022/12/12 04:17:42;;;;;;;21.23;14.30;;;;;;;-2.82;100.00;97492.78;5096420;28;20435;-71
2022/12/12 04:23:26;;;;;;;18.70;13.07;;;;;;;-2.91;100.00;97495.44;5096055;28;20392;-71
2022/12/12 04:29:03;;;;;;;21.10;14.07;;;;;;;-2.76;100.00;97492.19;5096106;28;20445;-71
2022/12/12 04:31:33;;;;;;;19.27;13.87;;;;;;;-2.76;100.00;97489.56;5095990;28;20826;-71
2022/12/12 04:34:05;;;;;;;20.07;13.93;;;;;;;-2.76;100.00;97505.19;5095982;28;20420;-71
2022/12/12 04:36:35;;;;;;;20.50;13.97;;;;;;;-2.87;100.00;97500.22;5095857;28;20419;-71
2022/12/12 04:39:04;;;;;;;20.20;14.63;;;;;;;-2.95;100.00;97501.91;5095906;28;20432;-71
2022/12/12 04:41:34;;;;;;;22.27;15.77;;;;;;;-2.88;100.00;97506.41;5095726;28;20452;-71
2022/12/12 04:44:02;;;;;;;26.63;16.83;;;;;;;-2.79;100.00;97509.88;5096891;28;20432;-71
2022/12/12 04:46:32;;;;;;;22.67;16.30;;;;;;;-2.80;100.00;97508.25;5095820;28;20472;-71
2022/12/12 04:49:04;;;;;;;24.00;16.97;;;;;;;-2.75;100.00;97512.00;5095835;28;20444;-71
2022/12/12 04:51:41;;;;;;;23.93;17.20;;;;;;;-2.66;100.00;97507.72;5095249;28;20478;-71
2022/12/12 04:54:20;;;;;;;28.40;17.27;;;;;;;-2.66;100.00;97513.72;5095683;28;20425;-71
2022/12/12 04:56:53;;;;;;;26.00;16.83;;;;;;;-2.62;100.00;97509.84;5096262;28;20419;-71
2022/12/12 04:59:20;;;;;;;22.63;16.03;;;;;;;-2.57;100.00;97512.00;5078191;28;20427;-71
2022/12/12 05:02:00;;;;;;;26.43;17.13;;;;;;;-2.57;100.00;97507.59;5095840;28;20456;-71
2022/12/12 05:04:49;;;;;;;26.07;16.80;;;;;;;-2.56;100.00;97506.66;5095131;28;20435;-70
2022/12/12 05:07:23;;;;;;;26.33;17.57;;;;;;;-2.53;100.00;97516.75;5076832;28;20467;-71
2022/12/12 05:09:50;;;;;;;25.77;17.23;;;;;;;-2.53;100.00;97513.34;5095247;28;20772;-71
2022/12/12 05:12:16;;;;;;;27.83;18.10;;;;;;;-2.53;100.00;97514.16;5077272;28;20461;-71
2022/12/12 05:14:43;;;;;;;28.03;16.90;;;;;;;-2.44;100.00;97518.44;5095286;28;20440;-71
2022/12/12 05:17:15;;;;;;;24.60;17.17;;;;;;;-2.40;100.00;97511.97;5095043;28;20429;-71
2022/12/12 05:19:41;;;;;;;25.53;17.73;;;;;;;-2.31;100.00;97516.25;5094810;28;20420;-71
2022/12/12 05:22:08;;;;;;;24.93;17.03;;;;;;;-2.29;100.00;97519.56;5094530;28;20452;-71
2022/12/12 05:24:34;;;;;;;23.30;16.67;;;;;;;-2.32;100.00;97517.25;5094408;28;20440;-71
2022/12/12 05:27:01;;;;;;;23.90;17.83;;;;;;;-2.27;100.00;97525.41;5094682;28;20506;-71
2022/12/12 05:29:27;;;;;;;26.17;17.93;;;;;;;-2.29;100.00;97516.13;5095137;28;20432;-71
2022/12/12 05:31:53;;;;;;;24.50;16.83;;;;;;;-2.27;100.00;97515.00;5094468;28;20452;-71
2022/12/12 05:34:20;;;;;;;24.13;17.23;;;;;;;-2.35;100.00;97521.94;5094646;28;20558;-71
2022/12/12 05:36:46;;;;;;;26.23;18.00;;;;;;;-2.33;100.00;97517.38;5094973;28;20437;-71
2022/12/12 05:39:13;;;;;;;26.30;17.60;;;;;;;-2.30;100.00;97519.69;5094293;28;20444;-71
2022/12/12 05:41:39;;;;;;;27.43;18.97;;;;;;;-2.31;100.00;97524.06;5094498;28;20456;-71
2022/12/12 05:44:06;;;;;;;29.20;18.73;;;;;;;-2.37;100.00;97514.28;5094161;28;20437;-71
2022/12/12 05:46:32;;;;;;;27.23;18.37;;;;;;;-2.36;100.00;97520.28;5093981;28;20495;-71
2022/12/12 05:48:59;;;;;;;26.30;18.80;;;;;;;-2.44;100.00;97526.25;5094132;28;20950;-71
2022/12/12 05:51:25;;;;;;;24.90;18.10;;;;;;;-2.43;100.00;97533.09;5093874;28;20478;-71
2022/12/12 05:53:51;;;;;;;26.97;18.20;;;;;;;-2.39;100.00;97528.41;5093947;28;20880;-71
2022/12/12 05:56:18;;;;;;;26.47;17.97;;;;;;;-2.33;100.00;97526.03;5094526;28;20432;-71
2022/12/12 05:58:44;;;;;;;27.20;18.10;;;;;;;-2.40;100.00;97534.59;5094392;28;20440;-71
2022/12/12 06:01:11;;;;;;;24.57;18.57;;;;;;;-2.33;100.00;97530.41;5093503;28;20457;-71
2022/12/12 06:03:37;;;;;;;24.30;18.20;;;;;;;-2.31;100.00;97534.47;5094036;28;20436;-71
2022/12/12 06:06:04;;;;;;;27.13;18.30;;;;;;;-2.24;100.00;97538.13;5093714;28;20468;-71
2022/12/12 06:08:31;;;;;;;25.10;18.40;;;;;;;-2.24;100.00;97540.72;5093655;28;20440;-71
2022/12/12 06:10:57;;;;;;;26.67;18.93;;;;;;;-2.30;100.00;97536.13;5093682;28;20460;-71
2022/12/12 06:13:24;;;;;;;28.07;18.27;;;;;;;-2.29;100.00;97535.16;5093994;28;20436;-71
2022/12/12 06:15:50;;;;;;;27.17;18.77;;;;;;;-2.34;100.00;97536.59;5093728;28;20438;-71
2022/12/12 06:18:16;;;;;;;26.50;18.57;;;;;;;-2.30;100.00;97548.31;5094229;28;20778;-71
2022/12/12 06:20:43;;;;;;;27.90;19.37;;;;;;;-2.32;100.00;97548.47;5093351;28;20456;-71
2022/12/12 06:23:09;;;;;;;26.73;19.13;;;;;;;-2.29;100.00;97545.59;5093943;28;20446;-71
2022/12/12 06:25:35;;;;;;;27.80;18.70;;;;;;;-2.26;100.00;97550.47;5092609;28;20478;-71
2022/12/12 06:28:02;;;;;;;25.50;17.73;;;;;;;-2.34;100.00;97552.19;5093274;28;20954;-71
2022/12/12 06:30:28;;;;;;;25.50;18.10;;;;;;;-2.29;100.00;97548.19;5093125;28;20441;-71
2022/12/12 06:32:54;;;;;;;26.37;18.03;;;;;;;-2.28;100.00;97552.41;5093097;28;20436;-71
2022/12/12 06:35:21;;;;;;;23.93;17.40;;;;;;;-2.24;100.00;97555.53;5093316;28;20432;-71
2022/12/12 06:37:48;;;;;;;25.70;18.07;;;;;;;-2.17;100.00;97556.56;5092824;28;20495;-71
2022/12/12 06:40:15;;;;;;;25.83;18.27;;;;;;;-2.19;100.00;97555.88;5092732;28;20520;-71
2022/12/12 06:42:41;;;;;;;24.57;17.47;;;;;;;-2.25;100.00;97559.91;5092882;28;20993;-71
2022/12/12 06:45:08;;;;;;;27.93;18.63;;;;;;;-2.25;100.00;97552.09;5093421;28;20436;-71
2022/12/12 06:48:11;;;;;;;28.17;17.60;;;;;;;-2.19;100.00;97551.50;5092547;28;20994;-70
2022/12/12 06:50:45;;;;;;;27.57;18.03;;;;;;;-2.28;100.00;97547.22;5092623;28;20435;-71
2022/12/12 06:53:11;;;;;;;26.07;17.87;;;;;;;-2.30;100.00;97562.16;5093054;28;20508;-70
2022/12/12 06:55:42;;;;;;;24.47;17.53;;;;;;;-2.36;100.00;97565.34;5093114;28;20595;-70
2022/12/12 06:58:09;;;;;;;26.33;17.50;;;;;;;-2.28;100.00;97565.44;5093248;28;20846;-71
2022/12/12 07:00:35;;;;;;;24.53;17.30;;;;;;;-2.28;100.00;97572.41;5092864;28;20439;-70
2022/12/12 07:03:01;;;;;;;25.03;17.70;;;;;;;-2.22;100.00;97577.03;5092688;28;20440;-71
2022/12/12 07:05:28;;;;;;;25.73;18.30;;;;;;;-2.21;100.00;97581.25;5092798;28;20443;-71
2022/12/12 07:07:54;;;;;;;26.03;17.73;;;;;;;-2.28;100.00;97583.66;5092938;28;20433;-71
2022/12/12 07:10:20;;;;;;;27.33;17.57;;;;;;;-2.22;100.00;97585.63;5092497;28;20451;-71
2022/12/12 07:12:47;;;;;;;27.97;19.10;;;;;;;-2.20;100.00;97577.69;5092673;28;20429;-71
2022/12/12 07:15:13;;;;;;;24.87;17.50;;;;;;;-2.09;100.00;97580.84;5092499;28;20448;-70
2022/12/12 07:17:40;;;;;;;25.37;17.87;;;;;;;-2.07;100.00;97576.31;5092550;28;20436;-71
2022/12/12 07:20:06;;;;;;;25.67;17.67;;;;;;;-2.04;100.00;97580.38;5092517;28;20474;-71
2022/12/12 07:22:33;;;;;;;27.50;18.40;;;;;;;-2.06;100.00;97572.75;5092595;28;20452;-71
2022/12/12 07:25:00;;;;;;;29.67;18.57;;;;;;;-2.02;100.00;97583.69;5092902;28;20459;-71
2022/12/12 07:27:26;;;;;;;29.77;18.53;;;;;;;-2.05;100.00;97578.75;5092106;28;20476;-70
2022/12/12 07:29:52;;;;;;;26.57;18.00;;;;;;;-2.08;100.00;97587.69;5093938;28;20927;-71
2022/12/12 07:32:19;;;;;;;30.97;18.60;;;;;;;-2.01;100.00;97578.31;5096767;28;20460;-71
2022/12/12 07:34:45;;;;;;;28.10;18.17;;;;;;;-2.04;100.00;97583.81;5096757;28;20451;-71
2022/12/12 07:37:11;;;;;;;25.57;18.13;;;;;;;-2.05;100.00;97587.41;5096918;28;20436;-71
2022/12/12 07:39:38;;;;;;;27.93;18.33;;;;;;;-2.14;100.00;97603.94;5096361;28;20440;-71
2022/12/12 07:42:04;;;;;;;27.47;19.13;;;;;;;-2.07;100.00;97604.94;5096101;28;20467;-71
2022/12/12 07:44:31;;;;;;;24.83;18.00;;;;;;;-1.99;100.00;97606.81;5095953;28;20444;-71
2022/12/12 07:46:58;;;;;;;28.23;17.83;;;;;;;-2.03;100.00;97601.06;5096398;28;20480;-71
2022/12/12 07:49:25;;;;;;;29.57;18.67;;;;;;;-2.02;100.00;97607.94;5096431;28;20446;-71
2022/12/12 07:51:51;;;;;;;24.80;18.33;;;;;;;-1.98;100.00;97608.44;5095763;28;20478;-71
2022/12/12 07:54:18;;;;;;;28.63;18.40;;;;;;;-2.03;100.00;97611.50;5096208;28;20439;-71
2022/12/12 07:56:44;;;;;;;28.43;18.53;;;;;;;-2.07;100.00;97610.16;5096239;28;20800;-71
2022/12/12 07:59:11;;;;;;;28.27;18.60;;;;;;;-2.14;100.00;97614.34;5096228;28;20439;-71
2022/12/12 08:01:37;;;;;;;28.53;18.33;;;;;;;-2.05;100.00;97604.81;5096210;28;20452;-71
2022/12/12 08:04:04;;;;;;;26.13;18.57;;;;;;;-1.97;100.00;97604.88;5096437;28;20444;-71
2022/12/12 08:06:31;;;;;;;29.97;19.70;;;;;;;-2.02;100.00;97609.72;5096572;28;20476;-71
2022/12/12 08:08:58;;;;;;;25.70;18.50;;;;;;;-1.96;100.00;97606.50;5095811;28;20440;-71
2022/12/12 08:11:25;;;;;;;27.47;19.17;;;;;;;-1.86;100.00;97612.41;5096102;28;20462;-71
2022/12/12 08:13:52;;;;;;;26.40;18.50;;;;;;;-1.91;100.00;97610.28;5096320;28;20444;-72
2022/12/12 08:16:28;;;;;;;24.17;17.33;;;;;;;-1.85;100.00;97611.47;5096106;28;20436;-71
2022/12/12 08:18:58;;;;;;;26.87;18.20;;;;;;;-1.75;100.00;97622.59;5095793;28;20451;-71
2022/12/12 08:21:25;;;;;;;23.63;17.80;;;;;;;-1.68;100.00;97624.44;5095742;28;20546;-72
2022/12/12 08:23:56;;;;;;;26.03;17.37;;;;;;;-1.75;100.00;97630.41;5095398;28;20428;-71
2022/12/12 08:26:22;;;;;;;26.30;17.97;;;;;;;-1.78;100.00;97636.75;5095475;28;20474;-71
2022/12/12 08:28:48;;;;;;;26.77;17.87;;;;;;;-1.72;100.00;97641.34;5095600;28;20442;-71
2022/12/12 08:31:20;;;;;;;25.70;18.07;;;;;;;-1.66;100.00;97635.50;5095611;28;20951;-71
2022/12/12 08:33:47;;;;;;;26.93;18.63;;;;;;;-1.65;100.00;97639.78;5095358;28;20853;-71
2022/12/12 08:36:18;;;;;;;24.83;17.77;;;;;;;-1.68;100.00;97640.06;5096001;28;20471;-71
2022/12/12 08:38:45;;;;;;;27.00;18.00;;;;;;;-1.85;100.00;97646.13;5095457;28;20427;-71
2022/12/12 08:41:13;;;;;;;25.03;19.00;;;;;;;-1.61;100.00;97638.50;5094103;28;20458;-71
2022/12/12 08:43:41;;;;;;;22.93;17.20;;;;;;;-1.61;100.00;97643.72;5095386;28;20440;-71
2022/12/12 08:46:09;;;;;;;25.23;17.37;;;;;;;-1.68;100.00;97642.69;5095633;28;20480;-71
2022/12/12 08:48:35;;;;;;;24.90;17.83;;;;;;;-1.65;100.00;97650.19;5095585;28;20949;-71
2022/12/12 08:51:02;;;;;;;23.80;17.83;;;;;;;-1.49;100.00;97647.69;5095345;28;20460;-71
2022/12/12 08:53:28;;;;;;;24.50;17.83;;;;;;;-1.50;100.00;97646.06;5095366;28;20429;-71
2022/12/12 08:55:55;;;;;;;24.90;17.43;;;;;;;-1.36;100.00;97653.31;5095438;28;20448;-71
2022/12/12 08:58:21;;;;;;;25.20;17.83;;;;;;;-1.46;100.00;97647.38;5095037;28;20811;-71
2022/12/12 09:00:48;;;;;;;24.30;18.17;;;;;;;-1.43;100.00;97652.31;5095322;28;20456;-71
2022/12/12 09:03:14;;;;;;;26.70;18.23;;;;;;;-1.29;100.00;97648.28;5095014;28;20441;-71
2022/12/12 09:05:45;;;;;;;26.50;18.80;;;;;;;-1.36;100.00;97645.47;5095247;28;20203;-71
2022/12/12 09:08:13;;;;;;;27.27;17.97;;;;;;;-1.28;100.00;97658.56;5095462;28;20474;-71
2022/12/12 09:10:41;;;;;;;23.70;17.93;;;;;;;-1.25;100.00;97654.81;5094873;28;20451;-71
2022/12/12 09:13:07;;;;;;;25.47;18.07;;;;;;;-1.13;100.00;97654.41;5095177;28;20204;-71
2022/12/12 09:15:35;;;;;;;26.77;17.70;;;;;;;-1.23;100.00;97656.31;5095112;28;20204;-72
2022/12/12 09:18:02;;;;;;;23.17;17.30;;;;;;;-1.17;99.83;97658.28;5094908;28;20210;-71
2022/12/12 09:20:28;;;;;;;24.00;17.07;;;;;;;-1.01;99.06;97654.94;5094733;28;20290;-71
2022/12/12 09:22:55;;;;;;;23.90;17.03;;;;;;;-1.13;98.45;97659.59;5094839;28;20210;-71
2022/12/12 09:25:22;;;;;;;23.93;16.73;;;;;;;-1.03;98.96;97669.94;5094360;28;20761;-71
2022/12/12 09:27:48;;;;;;;22.03;16.23;;;;;;;-0.90;97.25;97665.09;5094906;28;20230;-71
2022/12/12 09:30:15;;;;;;;22.57;16.27;;;;;;;-0.88;95.97;97669.19;5095217;28;20214;-72
2022/12/12 09:32:44;;;;;;;25.00;16.77;;;;;;;-0.74;96.05;97678.19;5094537;28;20230;-71
2022/12/12 09:35:11;;;;;;;22.47;16.03;;;;;;;-0.78;95.05;97672.47;5094760;28;20200;-71
2022/12/12 09:37:37;;;;;;;23.77;16.50;;;;;;;-0.59;94.75;97674.81;5094458;28;20681;-71
2022/12/12 09:40:04;;;;;;;21.37;16.07;;;;;;;-0.64;95.22;97677.09;5094295;28;20216;-72
2022/12/12 09:42:32;;;;;;;19.87;15.30;;;;;;;-0.70;93.72;97672.50;5094618;28;20235;-71
2022/12/12 09:45:04;;;;;;;20.87;15.37;;;;;;;-0.78;94.16;97669.88;5094559;28;20210;-71
2022/12/12 09:47:44;;;;;;;18.77;14.83;;;;;;;-0.74;93.86;97672.97;5094471;28;20212;-71
2022/12/12 09:50:29;;;;;;;20.17;14.07;;;;;;;-0.60;94.17;97673.19;5094400;28;20184;-71
2022/12/12 09:53:00;;;;;;;20.80;14.80;;;;;;;-0.65;93.40;97664.19;5093946;28;20194;-72
2022/12/12 09:55:38;;;;;;;22.20;14.77;;;;;;;-0.48;92.24;97671.94;5094285;28;20192;-71
2022/12/12 09:58:29;;;;;;;20.33;14.33;;;;;;;-0.44;93.13;97661.97;5075834;28;20188;-71
2022/12/12 10:01:05;;;;;;;23.37;15.80;;;;;;;-0.47;93.47;97662.28;5078944;28;20234;-71
2022/12/12 10:03:50;;;;;;;20.73;14.70;;;;;;;-0.64;91.74;97653.59;5076345;28;20302;-72
2022/12/12 10:06:18;;;;;;;24.40;17.23;;;;;;;-0.61;94.50;97661.13;5094258;28;20191;-72
2022/12/12 10:09:00;;;;;;;22.63;16.67;;;;;;;-0.62;96.41;97658.66;5095032;28;20312;-71
2022/12/12 10:14:27;;;;;;;26.30;16.90;;;;;;;-0.53;94.89;97657.72;5094422;28;20233;-71
2022/12/12 10:16:56;;;;;;;25.63;17.03;;;;;;;-0.55;94.58;97655.25;5077067;28;20184;-71
2022/12/12 10:19:28;;;;;;;30.70;16.57;;;;;;;-0.68;95.03;97649.66;5093945;28;20203;-72
2022/12/12 10:22:01;;;;;;;24.37;16.50;;;;;;;-0.59;95.40;97647.88;5093621;28;20707;-71
2022/12/12 10:24:33;;;;;;;23.43;16.50;;;;;;;-0.49;96.04;97653.81;5093928;28;20188;-71
2022/12/12 10:27:08;;;;;;;26.60;16.93;;;;;;;-0.50;95.48;97658.19;5093604;28;20234;-72
2022/12/12 10:29:34;;;;;;;22.40;16.47;;;;;;;-0.49;96.35;97646.78;5093571;28;20191;-72
2022/12/12 10:32:11;;;;;;;25.80;16.73;;;;;;;-0.67;96.05;97650.50;5092983;28;20705;-71
2022/12/12 10:35:05;;;;;;;27.30;17.23;;;;;;;-0.77;96.68;97655.84;5093436;28;20188;-71
2022/12/12 10:37:54;;;;;;;22.67;16.30;;;;;;;-0.59;96.34;97648.72;5093514;28;20556;-71
2022/12/12 10:40:45;;;;;;;22.33;15.77;;;;;;;-0.83;96.84;97651.25;5093351;28;20198;-71
2022/12/12 10:43:21;;;;;;;24.20;16.07;;;;;;;-0.89;97.46;97657.09;5093190;28;20226;-72
2022/12/12 10:46:21;;;;;;;20.83;14.97;;;;;;;-0.79;95.02;97655.19;5076725;28;20191;-72
2022/12/12 10:48:48;;;;;;;19.37;14.27;;;;;;;-0.89;94.26;97651.06;5076792;28;20599;-72
2022/12/12 10:51:18;;;;;;;24.20;14.60;;;;;;;-0.66;93.52;97652.97;5093182;28;20479;-71
2022/12/12 10:53:45;;;;;;;20.20;14.67;;;;;;;-0.64;91.97;97651.00;5093562;28;20192;-72
2022/12/12 10:56:28;;;;;;;21.53;14.93;;;;;;;-0.51;90.92;97643.53;5093286;28;20203;-72
2022/12/12 10:59:00;;;;;;;17.27;13.20;;;;;;;-0.59;90.19;97646.09;5093097;28;20188;-72
2022/12/12 11:01:35;;;;;;;20.33;13.30;;;;;;;-0.55;89.74;97636.97;5093304;28;20254;-72
2022/12/12 11:04:04;;;;;;;17.13;14.10;;;;;;;-0.66;91.16;97645.13;5092485;28;20210;-71
2022/12/12 11:06:37;;;;;;;20.67;14.67;;;;;;;-0.46;90.94;97641.25;5092900;28;20640;-71
2022/12/12 11:09:18;;;;;;;20.03;14.47;;;;;;;-0.42;89.70;97645.16;5092800;28;20188;-71
2022/12/12 11:12:01;;;;;;;18.37;12.90;;;;;;;-0.34;89.05;97639.97;5092863;28;20655;-72
2022/12/12 11:14:37;;;;;;;18.67;13.30;;;;;;;-0.29;88.92;97632.47;5093391;28;20232;-71
2022/12/12 11:17:26;;;;;;;19.13;13.70;;;;;;;-0.18;88.93;97639.97;5093395;28;20194;-72
2022/12/12 11:19:54;;;;;;;19.67;13.87;;;;;;;-0.12;87.09;97635.91;5092938;28;20184;-71
2022/12/12 11:22:21;;;;;;;17.40;12.83;;;;;;;-0.06;87.77;97625.63;5092480;28;20588;-71
2022/12/12 11:24:49;;;;;;;18.30;12.80;;;;;;;-0.10;85.86;97626.09;5093001;28;20203;-72
2022/12/12 11:27:34;;;;;;;16.90;12.17;;;;;;;-0.15;86.58;97631.00;5092744;28;20238;-71
2022/12/12 11:30:02;;;;;;;16.80;12.43;;;;;;;-0.07;87.28;97624.00;5092698;28;20188;-71
2022/12/12 11:32:37;;;;;;;19.03;12.27;;;;;;;0.04;86.22;97623.66;5092970;28;20318;-72
2022/12/12 11:35:08;;;;;;;18.73;12.43;;;;;;;0.07;86.17;97617.28;5074790;28;20615;-72
2022/12/12 11:37:49;;;;;;;16.33;11.97;;;;;;;0.08;84.99;97619.72;5092898;28;20194;-71
2022/12/12 11:40:45;;;;;;;13.87;10.90;;;;;;;0.16;82.52;97621.50;5092845;28;20192;-71
2022/12/12 11:43:43;;;;;;;15.17;10.40;;;;;;;0.10;84.31;97620.38;5075666;28;20203;-72
2022/12/12 11:46:15;;;;;;;11.27;8.57;;;;;;;0.15;80.79;97622.50;5092304;28;20188;-71
2022/12/12 11:48:51;;;;;;;11.87;8.33;;;;;;;0.22;80.80;97618.22;5092673;28;20231;-72
2022/12/12 11:51:36;;;;;;;12.43;9.00;;;;;;;0.27;80.34;97615.94;5092535;28;20317;-71
2022/12/12 11:54:14;;;;;;;13.77;9.40;;;;;;;0.26;82.36;97613.50;5092778;28;20203;-71